createdAt,value
2022-11-29T00:02:13.062Z,96.50
2022-11-29T00:04:43.209Z,110.05
2022-11-29T00:07:11.923Z,109.20
2022-11-29T00:09:40.461Z,114.95
2022-11-29T00:12:14.863Z,117.13
2022-11-29T00:14:44.198Z,119.35
2022-11-29T00:17:23.829Z,117.82
2022-11-29T00:20:00.089Z,121.22
2022-11-29T00:22:42.095Z,117.03
2022-11-29T00:25:16.438Z,113.95
2022-11-29T00:27:47.696Z,122.35
2022-11-29T00:30:16.945Z,113.45
2022-11-29T00:33:10.635Z,119.90
2022-11-29T00:35:39.577Z,115.93
2022-11-29T00:38:09.102Z,122.22
2022-11-29T00:40:37.783Z,115.25
2022-11-29T00:43:10.456Z,119.97
2022-11-29T00:45:39.132Z,117.10
2022-11-29T00:48:09.182Z,115.10
2022-11-29T00:50:50.019Z,122.53
2022-11-29T00:53:32.054Z,120.57
2022-11-29T00:56:03.728Z,120.05
2022-11-29T00:58:44.481Z,112.93
2022-11-29T01:01:21.996Z,102.10
2022-11-29T01:04:07.844Z,109.55
2022-11-29T01:06:51.104Z,111.50
2022-11-29T01:09:28.779Z,127.97
2022-11-29T01:11:58.876Z,120.10
2022-11-29T01:14:27.907Z,108.90
2022-11-29T01:17:06.524Z,101.80
2022-11-29T01:19:49.291Z,103.53
2022-11-29T01:22:19.306Z,101.13
2022-11-29T01:24:47.733Z,112.05
2022-11-29T01:27:16.793Z,104.95
2022-11-29T01:29:47.417Z,106.15
2022-11-29T01:32:17.509Z,118.25
2022-11-29T01:34:46.420Z,137.30
2022-11-29T01:37:19.151Z,143.30
2022-11-29T01:39:52.520Z,116.85
2022-11-29T01:42:32.955Z,130.27
2022-11-29T01:45:14.490Z,106.70
2022-11-29T01:47:50.254Z,122.78
2022-11-29T01:50:18.744Z,121.55
2022-11-29T01:52:47.300Z,131.93
2022-11-29T01:55:24.214Z,121.60
2022-11-29T01:58:04.734Z,123.85
2022-11-29T02:00:44.761Z,110.07
2022-11-29T02:03:31.731Z,107.32
2022-11-29T02:06:15.573Z,107.30
2022-11-29T02:08:55.928Z,116.70
2022-11-29T02:11:50.233Z,134.88
2022-11-29T02:14:35.503Z,123.55
2022-11-29T02:17:11.451Z,142.90
2022-11-29T02:19:53.433Z,139.80
2022-11-29T02:22:26.518Z,126.45
2022-11-29T02:25:03.302Z,163.67
2022-11-29T02:27:33.874Z,154.73
2022-11-29T02:30:14.223Z,164.18
2022-11-29T02:32:42.527Z,194.30
2022-11-29T02:35:29.085Z,174.27
2022-11-29T02:38:15.969Z,195.50
2022-11-29T02:40:50.222Z,198.85
2022-11-29T02:43:24.207Z,206.48
2022-11-29T02:45:54.979Z,207.00
2022-11-29T02:48:42.561Z,211.85
2022-11-29T02:51:27.093Z,265.40
2022-11-29T02:54:16.733Z,214.50
2022-11-29T02:56:47.382Z,213.82
2022-11-29T02:59:21.942Z,207.80
2022-11-29T03:01:50.444Z,214.07
2022-11-29T03:04:28.500Z,210.30
2022-11-29T03:07:03.360Z,237.27
2022-11-29T03:09:40.031Z,256.70
2022-11-29T03:12:27.752Z,310.85
2022-11-29T03:14:58.578Z,264.83
2022-11-29T03:17:54.159Z,290.85
2022-11-29T03:20:34.620Z,257.42
2022-11-29T03:23:42.997Z,230.50
2022-11-29T03:26:18.744Z,258.58
2022-11-29T03:28:55.974Z,245.90
2022-11-29T03:31:31.288Z,259.02
2022-11-29T03:33:59.591Z,243.60
2022-11-29T03:36:55.690Z,277.90
2022-11-29T03:39:43.876Z,249.95
2022-11-29T03:42:17.083Z,243.23
2022-11-29T03:44:57.566Z,274.42
2022-11-29T03:47:37.729Z,291.90
2022-11-29T03:50:14.473Z,232.27
2022-11-29T03:53:02.052Z,307.65
2022-11-29T03:55:46.340Z,236.32
2022-11-29T03:58:17.492Z,292.35
2022-11-29T04:00:48.701Z,255.48
2022-11-29T04:03:41.810Z,314.27
2022-11-29T04:06:29.092Z,318.08
2022-11-29T04:09:16.084Z,258.80
2022-11-29T04:11:59.194Z,274.77
2022-11-29T04:14:36.210Z,304.67
2022-11-29T04:17:27.290Z,291.50
2022-11-29T04:20:27.710Z,330.63
2022-11-29T04:22:58.342Z,339.27
2022-11-29T04:25:29.664Z,283.00
2022-11-29T04:28:28.007Z,303.60
2022-11-29T04:31:05.578Z,278.77
2022-11-29T04:33:37.709Z,286.88
2022-11-29T04:36:27.277Z,274.35
2022-11-29T04:39:12.681Z,259.80
2022-11-29T04:41:44.331Z,267.35
2022-11-29T04:44:15.881Z,275.13
2022-11-29T04:46:50.265Z,270.50
2022-11-29T04:49:28.192Z,264.65
2022-11-29T04:52:14.930Z,274.27
2022-11-29T04:55:03.716Z,235.93
2022-11-29T04:57:58.781Z,223.57
2022-11-29T05:00:27.140Z,243.70
2022-11-29T05:03:00.549Z,218.88
2022-11-29T05:05:43.073Z,224.05
2022-11-29T05:08:22.364Z,222.52
2022-11-29T05:11:15.486Z,205.10
2022-11-29T05:13:43.687Z,223.25
2022-11-29T05:16:22.155Z,199.25
2022-11-29T05:19:08.062Z,205.05
2022-11-29T05:21:42.554Z,194.23
2022-11-29T05:24:18.279Z,201.35
2022-11-29T05:27:00.029Z,183.27
2022-11-29T05:29:38.938Z,169.23
2022-11-29T05:32:21.125Z,176.70
2022-11-29T05:34:51.931Z,168.48
2022-11-29T05:37:24.419Z,175.50
2022-11-29T05:39:52.485Z,153.88
2022-11-29T05:42:44.285Z,168.35
2022-11-29T05:45:26.404Z,194.38
2022-11-29T05:48:03.178Z,146.90
2022-11-29T05:50:39.906Z,157.32
2022-11-29T05:53:12.438Z,150.80
2022-11-29T05:55:45.541Z,143.60
2022-11-29T05:58:35.688Z,160.95
2022-11-29T06:01:15.774Z,128.15
2022-11-29T06:04:07.994Z,148.43
2022-11-29T06:06:47.057Z,135.25
2022-11-29T06:09:15.256Z,154.63
2022-11-29T06:11:46.480Z,115.57
2022-11-29T06:14:27.527Z,132.30
2022-11-29T06:17:11.262Z,117.00
2022-11-29T06:19:59.584Z,119.80
2022-11-29T06:22:33.862Z,119.97
2022-11-29T06:25:08.188Z,113.05
2022-11-29T06:27:43.319Z,126.65
2022-11-29T06:30:16.134Z,131.20
2022-11-29T06:33:10.207Z,174.07
2022-11-29T06:35:48.237Z,172.93
2022-11-29T06:38:20.140Z,188.02
2022-11-29T06:41:00.142Z,194.63
2022-11-29T06:43:35.000Z,247.25
2022-11-29T06:46:32.480Z,255.18
2022-11-29T06:49:25.190Z,281.10
2022-11-29T06:52:22.273Z,235.75
2022-11-29T06:54:57.408Z,269.13
2022-11-29T06:57:48.757Z,252.85
2022-11-29T07:00:22.693Z,225.15
2022-11-29T07:03:20.743Z,287.83
2022-11-29T07:05:54.718Z,232.63
2022-11-29T07:08:24.445Z,225.32
2022-11-29T07:10:56.682Z,234.17
2022-11-29T07:13:32.116Z,236.18
2022-11-29T07:16:27.013Z,259.63
2022-11-29T07:19:13.572Z,243.93
2022-11-29T07:21:53.032Z,312.90
2022-11-29T07:24:42.401Z,261.23
2022-11-29T07:27:14.063Z,237.30
2022-11-29T07:29:50.138Z,277.80
2022-11-29T07:32:21.476Z,253.10
2022-11-29T07:35:10.571Z,258.13
2022-11-29T07:37:51.383Z,226.40
2022-11-29T07:40:37.227Z,234.85
2022-11-29T07:43:18.576Z,213.13
2022-11-29T07:45:48.267Z,272.75
2022-11-29T07:48:19.107Z,240.48
2022-11-29T07:50:48.462Z,252.25
2022-11-29T07:53:18.515Z,253.63
2022-11-29T07:55:47.814Z,226.82
2022-11-29T07:58:19.661Z,235.68
2022-11-29T08:01:00.198Z,254.43
2022-11-29T08:03:44.992Z,240.40
2022-11-29T08:06:32.652Z,232.73
2022-11-29T08:09:18.469Z,204.00
2022-11-29T08:11:58.010Z,238.40
2022-11-29T08:14:36.895Z,250.02
2022-11-29T08:17:25.634Z,239.85
2022-11-29T08:20:16.840Z,247.13
2022-11-29T08:23:00.618Z,246.80
2022-11-29T08:25:32.366Z,228.05
2022-11-29T08:28:06.588Z,266.33
2022-11-29T08:30:39.917Z,224.07
2022-11-29T08:33:27.488Z,224.23
2022-11-29T08:36:11.420Z,235.30
2022-11-29T08:39:05.977Z,243.85
2022-11-29T08:41:56.444Z,224.65
2022-11-29T08:44:44.774Z,212.63
2022-11-29T08:47:34.251Z,245.48
2022-11-29T08:50:03.429Z,199.25
2022-11-29T08:52:51.065Z,257.73
2022-11-29T08:55:37.690Z,219.70
2022-11-29T08:58:21.408Z,223.82
2022-11-29T09:01:03.847Z,209.23
2022-11-29T09:04:02.403Z,200.52
2022-11-29T09:06:49.752Z,231.48
2022-11-29T09:09:32.765Z,212.85
2022-11-29T09:12:16.765Z,283.83
2022-11-29T09:15:06.459Z,246.63
2022-11-29T09:17:41.500Z,224.93
2022-11-29T09:20:13.130Z,247.77
2022-11-29T09:22:47.728Z,257.02
2022-11-29T09:25:18.813Z,243.02
2022-11-29T09:27:48.231Z,253.50
2022-11-29T09:30:23.836Z,256.67
2022-11-29T09:33:11.743Z,253.43
2022-11-29T09:35:43.058Z,300.05
2022-11-29T09:38:12.980Z,326.10
2022-11-29T09:40:49.476Z,295.73
2022-11-29T09:43:18.392Z,310.58
2022-11-29T09:45:50.632Z,310.55
2022-11-29T09:48:25.043Z,302.05
2022-11-29T09:50:59.158Z,327.67
2022-11-29T09:53:33.257Z,335.25
2022-11-29T09:56:17.244Z,314.77
2022-11-29T09:58:45.304Z,314.90
2022-11-29T10:01:23.186Z,328.83
2022-11-29T10:03:53.776Z,311.30
2022-11-29T10:06:32.060Z,311.55
2022-11-29T10:09:22.971Z,279.52
2022-11-29T10:11:57.335Z,302.05
2022-11-29T10:14:28.080Z,330.73
2022-11-29T10:17:01.070Z,269.77
2022-11-29T10:19:33.174Z,283.15
2022-11-29T10:22:16.651Z,264.05
2022-11-29T10:25:00.295Z,212.60
2022-11-29T10:27:30.907Z,215.88
2022-11-29T10:30:02.462Z,237.82
2022-11-29T10:32:42.547Z,243.40
2022-11-29T10:35:18.596Z,232.55
2022-11-29T10:38:07.765Z,233.13
2022-11-29T10:41:21.730Z,234.90
2022-11-29T10:43:51.365Z,199.55
2022-11-29T10:46:42.251Z,217.65
2022-11-29T10:49:17.969Z,249.07
2022-11-29T10:51:47.135Z,216.77
2022-11-29T10:54:30.965Z,191.80
2022-11-29T10:59:32.925Z,220.88
2022-11-29T11:02:04.103Z,169.70
2022-11-29T11:04:36.288Z,141.95
2022-11-29T11:07:07.138Z,183.95
2022-11-29T11:09:41.676Z,196.57
2022-11-29T11:12:16.106Z,198.82
2022-11-29T11:14:45.749Z,203.25
2022-11-29T11:17:25.879Z,216.23
2022-11-29T11:20:00.888Z,204.60
2022-11-29T11:22:39.864Z,199.07
2022-11-29T11:25:34.653Z,199.68
2022-11-29T11:28:21.845Z,215.70
2022-11-29T11:30:55.800Z,190.73
2022-11-29T11:33:32.829Z,185.10
2022-11-29T11:36:07.600Z,215.82
2022-11-29T11:38:38.049Z,226.68
2022-11-29T11:41:45.181Z,202.18
2022-11-29T11:47:35.986Z,222.70
2022-11-29T11:50:13.317Z,217.10
2022-11-29T11:53:06.122Z,248.13
2022-11-29T11:55:44.719Z,220.27
2022-11-29T11:58:28.556Z,244.63
2022-11-29T12:01:04.684Z,248.23
2022-11-29T12:06:29.440Z,245.00
2022-11-29T12:09:04.848Z,277.73
2022-11-29T12:11:42.246Z,274.58
2022-11-29T12:14:19.399Z,264.13
2022-11-29T12:16:49.885Z,256.27
2022-11-29T12:19:31.489Z,277.08
2022-11-29T12:22:04.061Z,257.63
2022-11-29T12:24:36.844Z,261.55
2022-11-29T12:27:06.725Z,216.95
2022-11-29T12:29:48.168Z,248.98
2022-11-29T12:32:38.266Z,225.82
2022-11-29T12:35:30.785Z,205.05
2022-11-29T12:38:08.024Z,212.45
2022-11-29T12:40:37.178Z,216.65
2022-11-29T12:43:10.979Z,210.13
2022-11-29T12:46:02.393Z,214.38
2022-11-29T12:48:30.728Z,199.40
2022-11-29T12:50:59.368Z,186.73
2022-11-29T12:53:38.180Z,183.18
2022-11-29T12:56:15.467Z,199.00
2022-11-29T12:58:46.394Z,193.05
2022-11-29T13:01:17.315Z,216.48
2022-11-29T13:03:59.799Z,200.35
2022-11-29T13:06:37.122Z,218.57
2022-11-29T13:09:20.699Z,203.93
2022-11-29T13:11:59.320Z,196.13
2022-11-29T13:14:53.127Z,188.18
2022-11-29T13:17:47.921Z,207.57
2022-11-29T13:20:22.539Z,204.63
2022-11-29T13:23:09.504Z,203.07
2022-11-29T13:25:50.171Z,181.15
2022-11-29T13:28:26.447Z,189.60
2022-11-29T13:31:06.346Z,205.73
2022-11-29T13:34:06.948Z,218.15
2022-11-29T13:37:02.068Z,193.55
2022-11-29T13:39:39.755Z,211.73
2022-11-29T13:42:13.954Z,217.25
2022-11-29T13:44:42.114Z,194.35
2022-11-29T13:47:19.215Z,208.10
2022-11-29T13:49:54.915Z,207.15
2022-11-29T13:52:26.563Z,229.93
2022-11-29T13:55:07.331Z,180.70
2022-11-29T14:00:46.462Z,215.07
2022-11-29T14:03:33.678Z,189.57
2022-11-29T14:06:04.159Z,180.00
2022-11-29T14:09:17.915Z,185.60
2022-11-29T14:12:00.816Z,196.10
2022-11-29T14:14:32.404Z,185.52
2022-11-29T14:17:03.836Z,176.85
2022-11-29T14:19:34.418Z,187.15
2022-11-29T14:22:02.828Z,203.85
2022-11-29T14:24:35.278Z,202.27
2022-11-29T14:27:10.143Z,194.38
2022-11-29T14:29:50.308Z,198.63
2022-11-29T14:32:23.951Z,214.23
2022-11-29T14:35:11.102Z,197.38
2022-11-29T14:37:57.809Z,208.77
2022-11-29T14:40:38.126Z,191.13
2022-11-29T14:43:23.847Z,218.05
2022-11-29T14:46:08.403Z,215.40
2022-11-29T14:48:56.295Z,214.68
2022-11-29T14:51:36.128Z,214.38
2022-11-29T14:54:21.813Z,206.00
2022-11-29T14:57:20.305Z,219.32
2022-11-29T14:59:52.498Z,210.07
2022-11-29T15:02:39.649Z,220.23
2022-11-29T15:05:14.059Z,213.55
2022-11-29T15:07:56.943Z,211.48
2022-11-29T15:10:32.898Z,207.85
2022-11-29T15:13:01.515Z,222.43
2022-11-29T15:15:50.302Z,192.38
2022-11-29T15:18:34.986Z,188.98
2022-11-29T15:21:15.898Z,173.15
2022-11-29T15:23:44.567Z,170.27
2022-11-29T15:26:20.192Z,168.43
2022-11-29T15:28:53.479Z,154.30
2022-11-29T15:31:23.152Z,152.40
2022-11-29T15:33:54.004Z,139.40
2022-11-29T15:36:24.272Z,130.32
2022-11-29T15:39:06.392Z,131.90
2022-11-29T15:41:53.140Z,155.10
2022-11-29T15:44:33.630Z,119.47
2022-11-29T15:47:26.276Z,134.82
2022-11-29T15:49:55.441Z,116.65
2022-11-29T15:52:38.034Z,129.10
2022-11-29T15:55:14.917Z,135.60
2022-11-29T15:57:56.174Z,117.03
2022-11-29T16:00:33.809Z,131.07
2022-11-29T16:03:26.290Z,138.32
2022-11-29T16:06:29.357Z,127.60
2022-11-29T16:09:01.138Z,117.32
2022-11-29T16:11:32.299Z,111.45
2022-11-29T16:14:05.898Z,106.90
2022-11-29T16:16:35.700Z,139.80
2022-11-29T16:19:22.194Z,108.57
2022-11-29T16:22:23.724Z,100.25
2022-11-29T16:25:06.301Z,111.18
2022-11-29T16:27:47.598Z,126.38
2022-11-29T16:30:27.382Z,121.78
2022-11-29T16:33:16.703Z,123.20
2022-11-29T16:36:15.169Z,102.80
2022-11-29T16:38:55.214Z,119.70
2022-11-29T16:41:40.122Z,99.78
2022-11-29T16:44:40.633Z,114.20
2022-11-29T16:47:17.005Z,106.70
2022-11-29T16:50:03.481Z,128.30
2022-11-29T16:52:46.466Z,117.05
2022-11-29T16:55:20.157Z,105.82
2022-11-29T16:57:49.512Z,113.38
2022-11-29T17:00:23.522Z,107.32
2022-11-29T17:03:11.287Z,124.03
2022-11-29T17:05:44.592Z,101.20
2022-11-29T17:08:16.021Z,131.57
2022-11-29T17:10:50.425Z,131.68
2022-11-29T17:13:19.207Z,107.22
2022-11-29T17:16:02.084Z,127.53
2022-11-29T17:18:47.936Z,107.35
2022-11-29T17:21:30.117Z,108.28
2022-11-29T17:24:19.189Z,107.45
2022-11-29T17:27:02.800Z,121.95
2022-11-29T17:29:50.397Z,112.90
2022-11-29T17:32:28.196Z,121.60
2022-11-29T17:35:10.310Z,109.13
2022-11-29T17:37:59.592Z,97.78
2022-11-29T17:40:29.017Z,132.65
2022-11-29T17:42:57.640Z,122.70
2022-11-29T17:45:27.011Z,126.38
2022-11-29T17:48:10.998Z,119.07
2022-11-29T17:50:39.991Z,120.93
2022-11-29T17:53:08.866Z,114.78
2022-11-29T17:55:37.907Z,131.90
2022-11-29T18:01:03.691Z,129.30
2022-11-29T18:03:48.457Z,112.65
2022-11-29T18:06:36.162Z,116.65
2022-11-29T18:09:20.477Z,337.25
2022-11-29T18:11:59.479Z,142.13
2022-11-29T18:14:41.577Z,122.97
2022-11-29T18:17:29.190Z,125.72
2022-11-29T18:20:09.991Z,117.45
2022-11-29T18:23:03.607Z,130.77
2022-11-29T18:25:58.407Z,124.28
2022-11-29T18:28:37.490Z,119.78
2022-11-29T18:31:28.888Z,108.90
2022-11-29T18:34:16.612Z,130.90
2022-11-29T18:37:01.814Z,115.72
2022-11-29T18:39:47.931Z,119.25
2022-11-29T18:42:16.737Z,138.98
2022-11-29T18:44:45.325Z,134.23
2022-11-29T18:47:14.582Z,101.47
2022-11-29T18:49:43.407Z,105.38
2022-11-29T18:52:12.093Z,110.47
2022-11-29T18:54:40.462Z,122.28
2022-11-29T18:57:12.090Z,110.22
2022-11-29T18:59:40.670Z,105.28
2022-11-29T19:02:12.187Z,100.47
2022-11-29T19:04:40.650Z,104.38
2022-11-29T19:07:09.106Z,123.45
2022-11-29T19:09:39.871Z,115.22
2022-11-29T19:12:10.306Z,126.60
2022-11-29T19:14:41.818Z,138.45
2022-11-29T19:17:31.629Z,123.50
2022-11-29T19:20:14.156Z,127.90
2022-11-29T19:23:01.913Z,148.60
2022-11-29T19:25:46.235Z,132.85
2022-11-29T19:28:18.598Z,134.02
2022-11-29T19:30:59.630Z,133.15
2022-11-29T19:33:45.004Z,139.07
2022-11-29T19:36:28.593Z,117.70
2022-11-29T19:38:57.373Z,112.25
2022-11-29T19:41:28.198Z,118.50
2022-11-29T19:44:00.269Z,130.77
2022-11-29T19:46:39.007Z,123.53
2022-11-29T19:49:11.002Z,115.90
2022-11-29T19:51:42.105Z,124.22
2022-11-29T19:54:13.112Z,136.98
2022-11-29T19:56:42.188Z,134.93
2022-11-29T19:59:10.869Z,133.20
2022-11-29T20:01:41.938Z,131.45
2022-11-29T20:04:16.497Z,152.65
2022-11-29T20:06:50.043Z,142.20
2022-11-29T20:09:19.298Z,155.25
2022-11-29T20:11:48.370Z,154.27
2022-11-29T20:14:16.942Z,142.18
2022-11-29T20:16:45.950Z,157.80
2022-11-29T20:19:15.798Z,145.32
2022-11-29T20:22:03.497Z,137.70
2022-11-29T20:24:54.660Z,142.90
2022-11-29T20:27:42.204Z,152.40
2022-11-29T20:30:29.859Z,140.73
2022-11-29T20:33:20.799Z,140.63
2022-11-29T20:36:06.592Z,139.68
2022-11-29T20:38:56.235Z,139.32
2022-11-29T20:41:58.585Z,139.35
2022-11-29T20:44:45.284Z,132.63
2022-11-29T20:47:21.159Z,160.00
2022-11-29T20:50:00.576Z,135.82
2022-11-29T20:52:48.500Z,136.27
2022-11-29T20:55:36.678Z,157.65
2022-11-29T20:58:21.908Z,167.77
2022-11-29T21:00:57.303Z,166.75
2022-11-29T21:03:42.361Z,150.95
2022-11-29T21:06:11.274Z,149.77
2022-11-29T21:08:40.004Z,158.57
2022-11-29T21:11:10.215Z,157.95
2022-11-29T21:13:39.578Z,173.70
2022-11-29T21:16:12.103Z,162.55
2022-11-29T21:18:41.033Z,148.65
2022-11-29T21:21:40.816Z,168.65
2022-11-29T21:24:46.175Z,166.70
2022-11-29T21:27:25.450Z,176.27
2022-11-29T21:29:56.200Z,155.40
2022-11-29T21:32:27.669Z,152.70
2022-11-29T21:35:01.475Z,143.52
2022-11-29T21:37:32.141Z,177.15
2022-11-29T21:40:02.823Z,155.75
2022-11-29T21:42:38.706Z,159.85
2022-11-29T21:45:15.104Z,148.63
2022-11-29T21:48:00.348Z,159.85
2022-11-29T21:50:31.534Z,177.20
2022-11-29T21:53:02.469Z,163.75
2022-11-29T21:55:32.750Z,185.43
2022-11-29T21:58:01.238Z,171.73
2022-11-29T22:00:35.974Z,180.30
2022-11-29T22:03:24.976Z,189.75
2022-11-29T22:06:02.090Z,185.93
2022-11-29T22:08:51.701Z,186.27
2022-11-29T22:11:35.431Z,202.02
2022-11-29T22:14:19.901Z,202.10
2022-11-29T22:17:04.402Z,198.55
2022-11-29T22:19:39.365Z,200.52
2022-11-29T22:22:10.942Z,227.05
2022-11-29T22:24:44.839Z,194.98
2022-11-29T22:27:21.490Z,204.88
2022-11-29T22:29:50.247Z,192.65
2022-11-29T22:32:22.313Z,205.77
2022-11-29T22:35:07.586Z,197.93
2022-11-29T22:37:46.730Z,221.60
2022-11-29T22:40:35.270Z,208.90
2022-11-29T22:43:18.813Z,191.05
2022-11-29T22:46:12.398Z,211.65
2022-11-29T22:48:52.754Z,208.52
2022-11-29T22:51:35.030Z,206.45
2022-11-29T22:54:10.583Z,195.38
2022-11-29T22:56:44.673Z,234.43
2022-11-29T22:59:13.379Z,193.88
2022-11-29T23:01:43.237Z,216.45
2022-11-29T23:04:13.272Z,194.15
2022-11-29T23:06:45.513Z,203.52
2022-11-29T23:09:30.310Z,208.85
2022-11-29T23:12:07.384Z,205.90
2022-11-29T23:14:38.771Z,200.23
2022-11-29T23:17:07.844Z,214.52
2022-11-29T23:19:53.255Z,224.50
2022-11-29T23:22:28.689Z,199.43
2022-11-29T23:25:07.849Z,198.00
2022-11-29T23:27:55.093Z,218.40
2022-11-29T23:30:35.799Z,213.35
2022-11-29T23:33:24.010Z,214.07
2022-11-29T23:36:07.011Z,221.13
2022-11-29T23:38:54.558Z,236.50
2022-11-29T23:41:24.135Z,251.35
2022-11-29T23:43:53.038Z,227.10
2022-11-29T23:46:25.306Z,202.20
2022-11-29T23:48:56.274Z,187.40
2022-11-29T23:51:38.971Z,216.98
2022-11-29T23:54:24.055Z,183.18
2022-11-29T23:57:08.940Z,199.43
2022-11-29T23:59:51.605Z,205.25
